Time;durP1;ratioP1;P1;durP2;ratioP2;P2;SDS_P1;SDS_P2;PMS_P1;PMS_P2;Temp;Humidity;BMP_temperature;BMP_pressure;BME280_temperature;BME280_humidity;BME280_pressure;Samples;Min_cycle;Max_cycle;Signal;HPM_P1;HPM_P2
2023/05/21 00:00:41;;;;;;;;;;;;;;;18.28;71.58;98216.13;2080273;28;20015;-55
2023/05/21 00:01:44;;;;;;;;;;;;;;;18.31;70.68;98228.28;2087071;28;20456;-56
2023/05/21 00:02:45;;;;;;;;;;;;;;;18.29;70.97;98219.63;2076583;28;19925;-56
2023/05/21 00:03:46;;;;;;;;;;;;;;;18.31;71.04;98220.25;2083256;28;19973;-57
2023/05/21 00:04:47;;;;;;;;;;;;;;;18.31;70.77;98222.94;2083046;28;20135;-56
2023/05/21 00:05:48;;;;;;;;;;;;;;;18.28;70.53;98221.50;2085229;28;20019;-54
2023/05/21 00:06:50;;;;;;;;;;;;;;;18.30;71.30;98219.41;2081018;28;20271;-54
2023/05/21 00:07:52;;;;;;;;;;;;;;;18.31;70.92;98222.94;2090437;28;19921;-53
2023/05/21 00:08:53;;;;;;;;;;;;;;;18.31;71.08;98222.94;2079797;28;20806;-53
2023/05/21 00:09:54;;;;;;;;;;;;;;;18.31;70.88;98218.38;2081547;28;20348;-52
2023/05/21 00:10:55;;;;;;;;;;;;;;;18.33;71.36;98218.19;2086051;28;19924;-52
2023/05/21 00:11:55;;;;;;;;;;;;;;;18.31;71.24;98212.19;2079611;28;19967;-55
2023/05/21 00:12:57;;;;;;;;;;;;;;;18.31;70.82;98210.31;2083713;28;19924;-49
2023/05/21 00:13:58;;;;;;;;;;;;;;;18.30;71.06;98219.41;2082986;28;19928;-55
2023/05/21 00:15:00;;;;;;;;;;;;;;;18.31;70.97;98212.19;2084700;28;19928;-52
2023/05/21 00:16:00;;;;;;;;;;;;;;;18.33;71.72;98212.81;2084515;28;20023;-54
2023/05/21 00:17:03;;;;;;;;;;;;;;;18.31;71.10;98221.06;2080988;28;20306;-56
2023/05/21 00:18:04;;;;;;;;;;;;;;;18.31;71.41;98217.56;2084114;28;19928;-54
2023/05/21 00:19:06;;;;;;;;;;;;;;;18.32;71.61;98216.50;2088260;28;20587;-50
2023/05/21 00:20:07;;;;;;;;;;;;;;;18.31;71.33;98212.19;2088746;28;19932;-48
2023/05/21 00:21:09;;;;;;;;;;;;;;;18.31;70.99;98218.38;2084828;28;20378;-51
2023/05/21 00:22:09;;;;;;;;;;;;;;;18.30;70.88;98211.38;2086045;28;19985;-55
2023/05/21 00:23:11;;;;;;;;;;;;;;;18.31;71.41;98218.38;2085565;28;20759;-54
2023/05/21 00:24:11;;;;;;;;;;;;;;;18.31;71.00;98204.13;2086147;28;19925;-57
2023/05/21 00:25:13;;;;;;;;;;;;;;;18.32;71.40;98208.47;2088434;28;19928;-54
2023/05/21 00:26:13;;;;;;;;;;;;;;;18.32;71.49;98200.41;2086537;28;19973;-49
2023/05/21 00:27:15;;;;;;;;;;;;;;;18.33;71.34;98204.75;2088899;28;20010;-56
2023/05/21 00:28:15;;;;;;;;;;;;;;;18.33;71.30;98202.06;2086164;28;19970;-52
2023/05/21 00:29:16;;;;;;;;;;;;;;;18.36;71.45;98204.31;2087440;28;19927;-54
2023/05/21 00:30:17;;;;;;;;;;;;;;;18.36;71.68;98207.00;2087158;28;19982;-57
2023/05/21 00:31:18;;;;;;;;;;;;;;;18.35;71.32;98202.66;2085618;28;19925;-57
2023/05/21 00:32:20;;;;;;;;;;;;;;;18.33;71.74;98204.75;2082134;28;19925;-56
2023/05/21 00:33:25;;;;;;;;;;;;;;;18.36;71.25;98201.66;2079220;28;19925;-57
2023/05/21 00:34:26;;;;;;;;;;;;;;;18.33;71.68;98198.53;2081039;28;19924;-51
2023/05/21 00:35:27;;;;;;;;;;;;;;;18.32;71.55;98200.41;2079494;28;20628;-52
2023/05/21 00:36:27;;;;;;;;;;;;;;;18.31;71.65;98204.13;2084763;28;19970;-54
2023/05/21 00:37:33;;;;;;;;;;;;;;;18.34;71.84;98206.41;2088034;28;19981;-56
2023/05/21 00:38:36;;;;;;;;;;;;;;;18.32;71.54;98205.78;2084466;28;20015;-56
2023/05/21 00:39:37;;;;;;;;;;;;;;;18.30;71.64;98200.63;2085196;28;19931;-57
2023/05/21 00:40:40;;;;;;;;;;;;;;;18.32;72.01;98200.41;2085830;28;19924;-57
2023/05/21 00:41:41;;;;;;;;;;;;;;;18.32;71.88;98197.72;2086465;28;20053;-51
2023/05/21 00:42:46;;;;;;;;;;;;;;;18.31;71.79;98201.44;2087145;28;20435;-51
2023/05/21 00:43:47;;;;;;;;;;;;;;;18.32;71.87;98203.09;2085211;28;19965;-53
2023/05/21 00:44:48;;;;;;;;;;;;;;;18.33;72.25;98194.00;2085339;28;19978;-48
2023/05/21 00:45:49;;;;;;;;;;;;;;;18.32;71.89;98192.34;2086629;28;20019;-56
2023/05/21 00:46:52;;;;;;;;;;;;;;;18.31;71.62;98199.59;2084345;28;19928;-50
2023/05/21 00:47:54;;;;;;;;;;;;;;;18.33;71.84;98194.00;2080471;28;19924;-53
2023/05/21 00:48:56;;;;;;;;;;;;;;;18.34;71.75;98201.03;2079569;28;19928;-56
2023/05/21 00:49:57;;;;;;;;;;;;;;;18.34;71.16;98200.19;2082802;28;19924;-51
2023/05/21 00:50:58;;;;;;;;;;;;;;;18.35;71.85;98202.66;2087178;28;19972;-56
2023/05/21 00:52:00;;;;;;;;;;;;;;;18.35;71.53;98197.28;2085474;28;19929;-55
2023/05/21 00:53:01;;;;;;;;;;;;;;;18.36;71.76;98201.66;2086430;28;19924;-52
2023/05/21 00:54:02;;;;;;;;;;;;;;;18.35;72.05;98196.47;2086708;28;19977;-51
2023/05/21 00:55:04;;;;;;;;;;;;;;;18.35;71.82;98205.34;2085703;28;20672;-56
2023/05/21 00:56:05;;;;;;;;;;;;;;;18.35;71.74;98193.78;2088208;28;19929;-55
2023/05/21 00:57:07;;;;;;;;;;;;;;;18.35;71.77;98191.91;2087064;28;19990;-51
2023/05/21 00:58:07;;;;;;;;;;;;;;;18.34;71.93;98192.16;2086193;28;19966;-54
2023/05/21 00:59:09;;;;;;;;;;;;;;;18.34;72.22;98187.59;2087295;28;19924;-51
2023/05/21 01:00:10;;;;;;;;;;;;;;;18.35;71.76;98185.72;2088810;28;19992;-54
2023/05/21 01:01:12;;;;;;;;;;;;;;;18.36;72.13;98190.91;2086180;28;20458;-51
2023/05/21 01:02:16;;;;;;;;;;;;;;;18.35;71.84;98186.56;2085245;28;19929;-52
2023/05/21 01:03:19;;;;;;;;;;;;;;;18.36;71.71;98188.22;2079603;28;19935;-52
2023/05/21 01:04:21;;;;;;;;;;;;;;;18.36;72.06;98193.59;2081771;28;19924;-54
2023/05/21 01:05:22;;;;;;;;;;;;;;;18.34;71.63;98189.47;2083462;28;19968;-55
2023/05/21 01:06:23;;;;;;;;;;;;;;;18.33;71.77;98188.66;2079299;28;19981;-57
2023/05/21 01:07:24;;;;;;;;;;;;;;;18.35;72.08;98191.09;2085333;28;20436;-56
2023/05/21 01:08:26;;;;;;;;;;;;;;;18.35;71.53;98191.91;2080465;28;19977;-53
2023/05/21 01:09:28;;;;;;;;;;;;;;;18.35;72.38;98188.41;2086866;28;19925;-55
2023/05/21 01:10:28;;;;;;;;;;;;;;;18.34;71.69;98192.97;2085141;28;19924;-56
2023/05/21 01:11:37;;;;;;;;;;;;;;;18.34;71.82;98194.84;2084088;28;19981;-51
2023/05/21 01:12:38;;;;;;;;;;;;;;;18.35;71.93;98191.09;2087337;28;19928;-55
2023/05/21 01:13:41;;;;;;;;;;;;;;;18.35;72.72;98185.72;2086607;28;19923;-57
2023/05/21 01:14:42;;;;;;;;;;;;;;;18.34;71.88;98189.47;2085529;28;20336;-54
2023/05/21 01:15:43;;;;;;;;;;;;;;;18.33;72.59;98188.66;2086771;28;19924;-51
2023/05/21 01:16:45;;;;;;;;;;;;;;;18.36;71.97;98193.59;2085154;28;19974;-52
2023/05/21 01:17:47;;;;;;;;;;;;;;;18.36;72.08;98190.06;2080409;28;19928;-52
2023/05/21 01:18:50;;;;;;;;;;;;;;;18.36;71.98;98190.06;2083911;28;20344;-52
2023/05/21 01:19:53;;;;;;;;;;;;;;;18.37;72.21;98189.84;2084599;28;19928;-56
2023/05/21 01:20:54;;;;;;;;;;;;;;;18.38;71.89;98196.88;2085689;28;19947;-54
2023/05/21 01:21:57;;;;;;;;;;;;;;;18.36;72.18;98198.97;2085368;28;20353;-56
2023/05/21 01:23:00;;;;;;;;;;;;;;;18.34;72.23;98190.28;2086891;28;19929;-53
2023/05/21 01:24:01;;;;;;;;;;;;;;;18.34;71.63;98195.66;2086635;28;19932;-54
2023/05/21 01:25:03;;;;;;;;;;;;;;;18.35;72.26;98191.91;2085059;28;19934;-55
2023/05/21 01:26:03;;;;;;;;;;;;;;;18.35;72.26;98194.59;2086547;28;20554;-52
2023/05/21 01:27:06;;;;;;;;;;;;;;;18.37;72.08;98195.22;2084762;28;19924;-50
2023/05/21 01:28:06;;;;;;;;;;;;;;;18.37;72.12;98197.09;2085407;28;19952;-55
2023/05/21 01:29:11;;;;;;;;;;;;;;;18.36;72.26;98193.59;2087362;28;19925;-51
2023/05/21 01:30:13;;;;;;;;;;;;;;;18.37;72.54;98195.22;2085720;28;20011;-55
2023/05/21 01:31:22;;;;;;;;;;;;;;;18.38;72.31;98196.03;2080271;28;20598;-54
2023/05/21 01:32:27;;;;;;;;;;;;;;;18.36;72.29;98187.38;2084678;28;19924;-51
2023/05/21 01:33:29;;;;;;;;;;;;;;;18.35;72.06;98191.09;2079040;28;20318;-54
2023/05/21 01:34:34;;;;;;;;;;;;;;;18.32;72.16;98192.34;2082533;28;20546;-56
2023/05/21 01:35:37;;;;;;;;;;;;;;;18.34;72.43;98189.47;2083528;28;19973;-55
2023/05/21 01:36:42;;;;;;;;;;;;;;;18.35;72.03;98194.59;2079255;28;19924;-55
2023/05/21 01:37:45;;;;;;;;;;;;;;;18.35;72.63;98193.78;2083730;28;19924;-51
2023/05/21 01:38:50;;;;;;;;;;;;;;;18.33;72.30;98194.00;2082317;28;19963;-54
2023/05/21 01:39:53;;;;;;;;;;;;;;;18.35;72.17;98191.91;2083444;28;20016;-53
2023/05/21 01:40:57;;;;;;;;;;;;;;;18.34;72.02;98192.97;2077753;28;19959;-55
2023/05/21 01:41:59;;;;;;;;;;;;;;;18.35;72.36;98186.56;2083524;28;19928;-53
2023/05/21 01:43:01;;;;;;;;;;;;;;;18.35;72.44;98186.56;2084840;28;20012;-57
2023/05/21 01:44:03;;;;;;;;;;;;;;;18.35;72.04;98180.38;2086626;28;21172;-55
2023/05/21 01:45:06;;;;;;;;;;;;;;;18.36;72.07;98182.84;2082642;28;19928;-51
2023/05/21 01:46:09;;;;;;;;;;;;;;;18.38;71.93;98183.44;2084079;28;20346;-51
2023/05/21 01:47:11;;;;;;;;;;;;;;;18.36;71.83;98177.47;2083904;28;19939;-54
2023/05/21 01:48:11;;;;;;;;;;;;;;;18.36;71.99;98182.84;2083428;28;19924;-52
2023/05/21 01:49:13;;;;;;;;;;;;;;;18.35;71.55;98181.19;2082832;28;20022;-56
2023/05/21 01:50:14;;;;;;;;;;;;;;;18.35;72.10;98180.38;2083152;28;19962;-55
2023/05/21 01:51:16;;;;;;;;;;;;;;;18.35;72.13;98183.88;2085291;28;19928;-54
2023/05/21 01:52:17;;;;;;;;;;;;;;;18.36;72.63;98180.16;2086658;28;20433;-52
2023/05/21 01:53:18;;;;;;;;;;;;;;;18.33;72.40;98177.91;2085481;28;19928;-56
2023/05/21 01:54:22;;;;;;;;;;;;;;;18.35;71.73;98191.09;2088110;28;19924;-55
2023/05/21 01:55:24;;;;;;;;;;;;;;;18.36;72.24;98185.53;2085939;28;19929;-52
2023/05/21 01:56:24;;;;;;;;;;;;;;;18.35;72.46;98183.88;2081356;28;19981;-57
2023/05/21 01:57:26;;;;;;;;;;;;;;;18.33;71.61;98180.59;2088689;28;19945;-57
2023/05/21 01:58:26;;;;;;;;;;;;;;;18.35;72.44;98189.22;2085278;28;19977;-58
2023/05/21 01:59:28;;;;;;;;;;;;;;;18.35;72.09;98189.22;2091643;28;20572;-56
2023/05/21 02:00:31;;;;;;;;;;;;;;;18.36;71.72;98177.47;2088335;28;20012;-50
2023/05/21 02:01:32;;;;;;;;;;;;;;;18.37;72.15;98183.66;2085682;28;19920;-54
2023/05/21 02:02:33;;;;;;;;;;;;;;;18.36;72.18;98182.84;2088255;28;20796;-54
2023/05/21 02:03:34;;;;;;;;;;;;;;;18.36;72.00;98185.53;2089766;28;19973;-51
2023/05/21 02:04:34;;;;;;;;;;;;;;;18.35;72.20;98183.88;2083934;28;20330;-56
2023/05/21 02:05:36;;;;;;;;;;;;;;;18.36;71.42;98179.31;2081318;28;20299;-55
2023/05/21 02:06:38;;;;;;;;;;;;;;;18.35;72.47;98175.81;2086102;28;20011;-56
2023/05/21 02:07:40;;;;;;;;;;;;;;;18.34;71.82;98179.53;2088753;28;19921;-56
2023/05/21 02:08:40;;;;;;;;;;;;;;;18.33;72.66;98177.91;2085095;28;19921;-54
2023/05/21 02:09:43;;;;;;;;;;;;;;;18.34;71.98;98184.09;2088138;28;19924;-56
2023/05/21 02:10:43;;;;;;;;;;;;;;;18.35;72.57;98178.50;2088713;28;20378;-54
2023/05/21 02:11:45;;;;;;;;;;;;;;;18.35;72.01;98186.56;2084167;28;19928;-55
2023/05/21 02:12:45;;;;;;;;;;;;;;;18.36;72.23;98187.38;2081933;28;20957;-56
2023/05/21 02:13:47;;;;;;;;;;;;;;;18.36;72.01;98190.06;2084378;28;19990;-54
2023/05/21 02:14:49;;;;;;;;;;;;;;;18.36;71.98;98190.06;2084957;28;19929;-55
2023/05/21 02:15:53;;;;;;;;;;;;;;;18.35;71.71;98185.72;2087613;28;19976;-53
2023/05/21 02:16:53;;;;;;;;;;;;;;;18.34;71.32;98192.16;2083387;28;19920;-56
2023/05/21 02:17:55;;;;;;;;;;;;;;;18.34;72.16;98189.47;2089976;28;19928;-52
2023/05/21 02:18:56;;;;;;;;;;;;;;;18.32;72.48;98186.97;2086383;28;19959;-54
2023/05/21 02:20:05;;;;;;;;;;;;;;;18.35;72.21;98183.03;2082753;28;19924;-52
2023/05/21 02:21:06;;;;;;;;;;;;;;;18.34;72.58;98181.41;2078587;28;20305;-51
2023/05/21 02:22:07;;;;;;;;;;;;;;;18.34;72.03;98179.53;2085633;28;19995;-56
2023/05/21 02:23:08;;;;;;;;;;;;;;;18.34;72.03;98178.72;2085455;28;19980;-55
2023/05/21 02:24:10;;;;;;;;;;;;;;;18.34;71.70;98179.53;2088672;28;19977;-51
2023/05/21 02:25:12;;;;;;;;;;;;;;;18.34;72.41;98179.53;2080461;28;19928;-50
2023/05/21 02:26:14;;;;;;;;;;;;;;;18.35;72.35;98183.88;2087691;28;19925;-56
2023/05/21 02:27:16;;;;;;;;;;;;;;;18.35;72.00;98170.44;2084235;28;19986;-55
2023/05/21 02:28:18;;;;;;;;;;;;;;;18.34;72.08;98174.19;2085621;28;19925;-54
2023/05/21 02:29:18;;;;;;;;;;;;;;;18.35;72.06;98175.00;2087527;28;19924;-56
2023/05/21 02:30:20;;;;;;;;;;;;;;;18.36;72.10;98176.63;2086795;28;19927;-54
2023/05/21 02:31:21;;;;;;;;;;;;;;;18.33;72.49;98175.22;2082560;28;19924;-51
2023/05/21 02:32:22;;;;;;;;;;;;;;;18.34;71.86;98166.13;2084701;28;19927;-49
2023/05/21 02:33:22;;;;;;;;;;;;;;;18.35;71.98;98165.06;2086973;28;19924;-52
2023/05/21 02:34:24;;;;;;;;;;;;;;;18.34;71.96;98162.63;2084280;28;19930;-53
2023/05/21 02:35:25;;;;;;;;;;;;;;;18.36;71.95;98166.75;2083417;28;20015;-52
2023/05/21 02:36:27;;;;;;;;;;;;;;;18.32;71.67;98170.88;2085960;28;19933;-49
2023/05/21 02:37:28;;;;;;;;;;;;;;;18.35;72.39;98165.06;2085631;28;19928;-55
2023/05/21 02:38:31;;;;;;;;;;;;;;;18.35;72.05;98162.38;2088206;28;20404;-54
2023/05/21 02:39:31;;;;;;;;;;;;;;;18.34;71.61;98163.44;2083730;28;20650;-54
2023/05/21 02:40:34;;;;;;;;;;;;;;;18.33;72.14;98156.44;2086321;28;19968;-51
2023/05/21 02:41:36;;;;;;;;;;;;;;;18.34;72.30;98159.94;2085158;28;19967;-51
2023/05/21 02:42:38;;;;;;;;;;;;;;;18.35;72.21;98165.06;2086810;28;21057;-51
2023/05/21 02:43:39;;;;;;;;;;;;;;;18.33;71.75;98163.63;2087675;28;19924;-49
2023/05/21 02:44:40;;;;;;;;;;;;;;;18.33;72.00;98156.44;2086734;28;19924;-55
2023/05/21 02:45:41;;;;;;;;;;;;;;;18.33;72.20;98153.75;2086611;28;19929;-51
2023/05/21 02:46:42;;;;;;;;;;;;;;;18.35;71.75;98154.34;2081949;28;19924;-52
2023/05/21 02:47:42;;;;;;;;;;;;;;;18.34;72.15;98150.00;2082187;28;19977;-50
2023/05/21 02:48:44;;;;;;;;;;;;;;;18.34;71.88;98154.56;2079120;28;19932;-52
2023/05/21 02:49:44;;;;;;;;;;;;;;;18.35;72.05;98154.34;2083387;28;19927;-53
2023/05/21 02:50:46;;;;;;;;;;;;;;;18.34;71.93;98155.38;2080718;28;20450;-52
2023/05/21 02:51:46;;;;;;;;;;;;;;;18.32;71.74;98149.41;2079012;28;19924;-53
2023/05/21 02:52:48;;;;;;;;;;;;;;;18.33;72.13;98151.06;2080356;28;20010;-52
2023/05/21 02:53:48;;;;;;;;;;;;;;;18.33;72.05;98151.06;2081860;28;19929;-53
2023/05/21 02:54:50;;;;;;;;;;;;;;;18.33;72.01;98151.06;2081357;28;19960;-51
2023/05/21 02:55:51;;;;;;;;;;;;;;;18.34;72.39;98147.31;2080389;28;19978;-52
2023/05/21 02:56:53;;;;;;;;;;;;;;;18.35;72.05;98150.81;2085379;28;19989;-52
2023/05/21 02:57:53;;;;;;;;;;;;;;;18.34;71.72;98151.88;2080663;28;19924;-54
2023/05/21 02:58:55;;;;;;;;;;;;;;;18.36;72.05;98149.78;2084671;28;19974;-50
2023/05/21 02:59:55;;;;;;;;;;;;;;;18.36;71.56;98147.09;2086160;28;19928;-51
2023/05/21 03:00:57;;;;;;;;;;;;;;;18.35;72.11;98145.47;2080603;28;20479;-52
2023/05/21 03:01:57;;;;;;;;;;;;;;;18.34;71.91;98139.28;2082229;28;20587;-52
2023/05/21 03:02:59;;;;;;;;;;;;;;;18.33;71.98;98144.84;2087382;28;19955;-56
2023/05/21 03:03:59;;;;;;;;;;;;;;;18.32;71.95;98146.72;2087390;28;19932;-55
2023/05/21 03:05:01;;;;;;;;;;;;;;;18.31;71.93;98142.38;2084845;28;20362;-56
2023/05/21 03:06:02;;;;;;;;;;;;;;;18.34;71.78;98144.63;2086667;28;19936;-54
2023/05/21 03:07:03;;;;;;;;;;;;;;;18.33;72.19;98145.69;2087876;28;20288;-53
2023/05/21 03:08:04;;;;;;;;;;;;;;;18.33;72.10;98143.00;2088871;28;19976;-54
2023/05/21 03:09:05;;;;;;;;;;;;;;;18.34;72.02;98147.31;2082686;28;19920;-54
2023/05/21 03:10:06;;;;;;;;;;;;;;;18.31;72.06;98137.00;2082297;28;20370;-53
2023/05/21 03:11:09;;;;;;;;;;;;;;;18.33;71.66;98143.00;2082857;28;19920;-54
2023/05/21 03:12:10;;;;;;;;;;;;;;;18.33;72.32;98139.47;2082649;28;19924;-52
2023/05/21 03:13:11;;;;;;;;;;;;;;;18.32;71.98;98141.34;2075738;28;19929;-54
2023/05/21 03:14:12;;;;;;;;;;;;;;;18.35;71.82;98145.47;2086485;28;19924;-52
2023/05/21 03:15:14;;;;;;;;;;;;;;;18.34;71.73;98141.97;2086080;28;20499;-51
2023/05/21 03:16:15;;;;;;;;;;;;;;;18.34;72.04;98138.47;2078204;28;19925;-53
2023/05/21 03:17:16;;;;;;;;;;;;;;;18.34;71.96;98141.97;2086575;28;19928;-49
2023/05/21 03:18:17;;;;;;;;;;;;;;;18.33;71.89;98145.69;2085747;28;19924;-50
2023/05/21 03:19:19;;;;;;;;;;;;;;;18.34;71.97;98146.50;2082682;28;19924;-50
2023/05/21 03:20:20;;;;;;;;;;;;;;;18.33;72.23;98144.84;2080776;28;20004;-52
2023/05/21 03:21:21;;;;;;;;;;;;;;;18.33;72.21;98134.94;2086019;28;19932;-49
2023/05/21 03:22:22;;;;;;;;;;;;;;;18.33;72.04;98134.09;2087664;28;19921;-54
2023/05/21 03:23:23;;;;;;;;;;;;;;;18.33;71.51;98140.31;2087705;28;20011;-55
2023/05/21 03:24:25;;;;;;;;;;;;;;;18.33;71.92;98140.31;2086945;28;20320;-50
2023/05/21 03:25:26;;;;;;;;;;;;;;;18.32;71.91;98138.66;2086262;28;19924;-50
2023/05/21 03:26:28;;;;;;;;;;;;;;;18.34;71.95;98135.78;2088586;28;19947;-54
2023/05/21 03:27:29;;;;;;;;;;;;;;;18.31;71.84;98139.69;2085319;28;19939;-52
2023/05/21 03:28:30;;;;;;;;;;;;;;;18.31;71.77;98137.84;2087131;28;20259;-53
2023/05/21 03:29:31;;;;;;;;;;;;;;;18.31;71.78;98140.53;2085794;28;19977;-55
2023/05/21 03:30:32;;;;;;;;;;;;;;;18.30;71.92;98140.72;2086381;28;19928;-52
2023/05/21 03:31:33;;;;;;;;;;;;;;;18.31;71.81;98131.66;2082880;28;19993;-54
2023/05/21 03:32:36;;;;;;;;;;;;;;;18.29;71.60;98133.72;2085760;28;21242;-53
2023/05/21 03:33:38;;;;;;;;;;;;;;;18.33;72.29;98134.09;2084603;28;19931;-56
2023/05/21 03:34:38;;;;;;;;;;;;;;;18.33;72.22;98134.94;2081450;28;20414;-49
2023/05/21 03:35:39;;;;;;;;;;;;;;;18.33;71.95;98134.09;2085672;28;19925;-55
2023/05/21 03:36:41;;;;;;;;;;;;;;;18.30;72.09;98132.66;2085905;28;19942;-51
2023/05/21 03:37:41;;;;;;;;;;;;;;;18.30;72.16;98128.16;2079952;28;19997;-54
2023/05/21 03:38:43;;;;;;;;;;;;;;;18.30;72.26;98130.84;2079343;28;19974;-54
2023/05/21 03:39:43;;;;;;;;;;;;;;;18.31;72.08;98131.66;2082809;28;19924;-56
2023/05/21 03:40:45;;;;;;;;;;;;;;;18.33;71.99;98131.41;2079874;28;19970;-56
2023/05/21 03:41:46;;;;;;;;;;;;;;;18.31;71.79;98128.97;2078724;28;19928;-52
2023/05/21 03:42:48;;;;;;;;;;;;;;;18.30;72.01;98135.34;2076867;28;19989;-54
2023/05/21 03:43:48;;;;;;;;;;;;;;;18.30;71.90;98133.50;2079605;28;20802;-52
2023/05/21 03:44:50;;;;;;;;;;;;;;;18.30;71.94;98135.34;2083245;28;19939;-54
2023/05/21 03:45:50;;;;;;;;;;;;;;;18.30;71.88;98130.84;2084816;28;19936;-55
2023/05/21 03:46:52;;;;;;;;;;;;;;;18.31;72.22;98131.66;2077793;28;19934;-52
2023/05/21 03:47:52;;;;;;;;;;;;;;;18.31;72.09;98132.47;2084497;28;19936;-50
2023/05/21 03:48:54;;;;;;;;;;;;;;;18.31;72.08;98134.34;2080557;28;20827;-54
2023/05/21 03:49:54;;;;;;;;;;;;;;;18.30;71.80;98138.03;2079908;28;19944;-55
2023/05/21 03:50:56;;;;;;;;;;;;;;;18.30;71.93;98136.19;2086425;28;19936;-53
2023/05/21 03:51:56;;;;;;;;;;;;;;;18.29;72.10;98139.09;2084681;28;19924;-55
2023/05/21 03:52:58;;;;;;;;;;;;;;;18.30;71.84;98143.41;2086097;28;19920;-54
2023/05/21 03:53:58;;;;;;;;;;;;;;;18.32;71.88;98149.41;2083377;28;19928;-55
2023/05/21 03:55:00;;;;;;;;;;;;;;;18.32;72.00;98144.03;2083044;28;19934;-53
2023/05/21 03:56:00;;;;;;;;;;;;;;;18.33;71.99;98139.47;2084114;28;19932;-55
2023/05/21 03:57:03;;;;;;;;;;;;;;;18.31;71.84;98147.75;2086332;28;19927;-55
2023/05/21 03:58:04;;;;;;;;;;;;;;;18.31;72.11;98145.06;2087880;28;19963;-53
2023/05/21 03:59:05;;;;;;;;;;;;;;;18.36;72.67;98149.78;2082212;28;19924;-56
2023/05/21 04:00:07;;;;;;;;;;;;;;;18.37;72.48;98146.09;2085935;28;19928;-53
2023/05/21 04:01:09;;;;;;;;;;;;;;;18.36;72.46;98147.09;2080323;28;19932;-50
2023/05/21 04:02:09;;;;;;;;;;;;;;;18.35;71.93;98148.16;2080270;28;19924;-54
2023/05/21 04:03:11;;;;;;;;;;;;;;;18.37;72.10;98149.59;2086466;28;19924;-50
2023/05/21 04:04:11;;;;;;;;;;;;;;;18.35;71.60;98143.59;2084007;28;20351;-53
2023/05/21 04:05:13;;;;;;;;;;;;;;;18.34;71.68;98141.13;2088551;28;19962;-48
2023/05/21 04:06:14;;;;;;;;;;;;;;;18.34;71.87;98141.97;2090879;28;20421;-50
2023/05/21 04:07:17;;;;;;;;;;;;;;;18.35;72.14;98142.78;2085090;28;19928;-55
2023/05/21 04:08:18;;;;;;;;;;;;;;;18.31;71.86;98137.84;2083090;28;19931;-53
2023/05/21 04:09:19;;;;;;;;;;;;;;;18.31;72.31;98139.69;2083093;28;19928;-53
2023/05/21 04:10:21;;;;;;;;;;;;;;;18.31;71.75;98142.38;2086351;28;20467;-54
2023/05/21 04:11:23;;;;;;;;;;;;;;;18.33;72.07;98137.63;2084043;28;19928;-49
2023/05/21 04:12:25;;;;;;;;;;;;;;;18.31;71.67;98132.47;2086327;28;19932;-53
2023/05/21 04:13:27;;;;;;;;;;;;;;;18.33;71.91;98140.31;2085772;28;19953;-53
2023/05/21 04:14:27;;;;;;;;;;;;;;;18.33;72.08;98136.78;2084513;28;19929;-53
2023/05/21 04:15:28;;;;;;;;;;;;;;;18.33;71.94;98134.94;2085100;28;19924;-57
2023/05/21 04:16:29;;;;;;;;;;;;;;;18.32;72.07;98138.66;2084622;28;19936;-54
2023/05/21 04:17:30;;;;;;;;;;;;;;;18.33;72.00;98134.09;2084251;28;19920;-55
2023/05/21 04:18:33;;;;;;;;;;;;;;;18.32;72.12;98133.28;2080010;28;19997;-52
2023/05/21 04:19:34;;;;;;;;;;;;;;;18.31;71.92;98131.66;2078975;28;20034;-56
2023/05/21 04:20:34;;;;;;;;;;;;;;;18.30;72.01;98130.84;2082467;28;19928;-54
2023/05/21 04:21:36;;;;;;;;;;;;;;;18.32;71.89;98130.59;2081011;28;19925;-53
2023/05/21 04:22:36;;;;;;;;;;;;;;;18.32;71.86;98135.97;2083391;28;19981;-55
2023/05/21 04:23:38;;;;;;;;;;;;;;;18.32;71.87;98133.28;2085866;28;20002;-52
2023/05/21 04:24:38;;;;;;;;;;;;;;;18.31;71.96;98131.66;2087204;28;19931;-54
2023/05/21 04:25:40;;;;;;;;;;;;;;;18.33;72.24;98132.28;2083991;28;20364;-54
2023/05/21 04:26:41;;;;;;;;;;;;;;;18.32;72.16;98130.59;2084828;28;19928;-53
2023/05/21 04:27:46;;;;;;;;;;;;;;;18.31;71.78;98131.66;2084988;28;20502;-54
2023/05/21 04:28:46;;;;;;;;;;;;;;;18.33;71.88;98139.47;2086709;28;20029;-55
2023/05/21 04:29:48;;;;;;;;;;;;;;;18.30;71.80;98129.97;2085305;28;20534;-51
2023/05/21 04:30:49;;;;;;;;;;;;;;;18.30;71.87;98132.66;2085951;28;20133;-52
2023/05/21 04:31:50;;;;;;;;;;;;;;;18.32;72.14;98146.72;2082629;28;19967;-52
2023/05/21 04:32:53;;;;;;;;;;;;;;;18.29;72.30;98139.09;2081839;28;19998;-52
2023/05/21 04:33:54;;;;;;;;;;;;;;;18.28;72.29;98138.25;2085656;28;20755;-51
2023/05/21 04:34:55;;;;;;;;;;;;;;;18.29;71.98;98139.91;2084549;28;19925;-54
2023/05/21 04:35:56;;;;;;;;;;;;;;;18.29;71.93;98147.13;2080454;28;19931;-55
2023/05/21 04:36:58;;;;;;;;;;;;;;;18.29;72.02;98139.91;2077927;28;21000;-52
2023/05/21 04:37:59;;;;;;;;;;;;;;;18.30;71.99;98138.03;2085678;28;19924;-51
2023/05/21 04:39:00;;;;;;;;;;;;;;;18.28;71.77;98138.25;2084880;28;20406;-56
2023/05/21 04:40:01;;;;;;;;;;;;;;;18.32;71.72;98146.72;2081553;28;19932;-52
2023/05/21 04:41:03;;;;;;;;;;;;;;;18.31;72.17;98147.75;2080682;28;19964;-55
2023/05/21 04:42:04;;;;;;;;;;;;;;;18.30;71.87;98146.09;2079641;28;20468;-51
2023/05/21 04:43:07;;;;;;;;;;;;;;;18.32;72.27;98144.03;2080483;28;19930;-56
2023/05/21 04:44:08;;;;;;;;;;;;;;;18.30;72.15;98146.09;2084125;28;19924;-56
2023/05/21 04:45:10;;;;;;;;;;;;;;;18.30;71.40;98146.09;2080551;28;20024;-56
2023/05/21 04:46:10;;;;;;;;;;;;;;;18.30;71.99;98138.88;2080465;28;20634;-54
2023/05/21 04:47:13;;;;;;;;;;;;;;;18.29;71.89;98144.44;2084192;28;19921;-54
2023/05/21 04:48:14;;;;;;;;;;;;;;;18.29;71.60;98141.78;2082222;28;19924;-52
2023/05/21 04:49:15;;;;;;;;;;;;;;;18.28;72.28;98140.13;2083291;28;19925;-53
2023/05/21 04:50:16;;;;;;;;;;;;;;;18.29;71.82;98142.59;2080648;28;20479;-53
2023/05/21 04:51:18;;;;;;;;;;;;;;;18.30;72.00;98141.56;2079298;28;19933;-51
2023/05/21 04:52:18;;;;;;;;;;;;;;;18.30;71.92;98140.72;2076206;28;19924;-50
2023/05/21 04:53:20;;;;;;;;;;;;;;;18.29;71.94;98145.28;2084060;28;19958;-54
2023/05/21 04:54:21;;;;;;;;;;;;;;;18.29;71.49;98144.44;2083358;28;20027;-53
2023/05/21 04:55:22;;;;;;;;;;;;;;;18.29;72.07;98139.09;2079271;28;19938;-55
2023/05/21 04:56:25;;;;;;;;;;;;;;;18.26;71.93;98143.00;2080285;28;19982;-55
2023/05/21 04:57:27;;;;;;;;;;;;;;;18.29;72.02;98141.78;2082236;28;20042;-56
2023/05/21 04:58:28;;;;;;;;;;;;;;;18.29;71.84;98139.91;2081534;28;19928;-49
2023/05/21 04:59:30;;;;;;;;;;;;;;;18.29;71.84;98139.09;2081461;28;19993;-52
2023/05/21 05:00:31;;;;;;;;;;;;;;;18.28;72.37;98142.81;2081324;28;19954;-53
2023/05/21 05:01:33;;;;;;;;;;;;;;;18.30;71.89;98138.03;2082381;28;19928;-51
2023/05/21 05:02:34;;;;;;;;;;;;;;;18.28;71.38;98146.31;2087203;28;20557;-52
2023/05/21 05:03:35;;;;;;;;;;;;;;;18.28;71.94;98143.63;2080663;28;19924;-50
2023/05/21 05:04:36;;;;;;;;;;;;;;;18.28;72.18;98149.00;2085376;28;19924;-54
2023/05/21 05:05:37;;;;;;;;;;;;;;;18.29;72.01;98145.28;2083510;28;19928;-55
2023/05/21 05:06:38;;;;;;;;;;;;;;;18.29;71.92;98139.09;2084530;28;19920;-54
2023/05/21 05:07:39;;;;;;;;;;;;;;;18.28;72.11;98148.19;2084917;28;19924;-54
2023/05/21 05:08:40;;;;;;;;;;;;;;;18.29;72.12;98133.72;2086227;28;20485;-54
2023/05/21 05:09:42;;;;;;;;;;;;;;;18.28;71.95;98145.50;2084751;28;19960;-52
2023/05/21 05:10:42;;;;;;;;;;;;;;;18.27;72.21;98141.97;2085327;28;20058;-52
2023/05/21 05:11:44;;;;;;;;;;;;;;;18.27;72.00;98133.91;2083403;28;20520;-56
2023/05/21 05:12:44;;;;;;;;;;;;;;;18.28;72.17;98137.44;2080331;28;20669;-56
2023/05/21 05:13:47;;;;;;;;;;;;;;;18.29;71.98;98145.28;2080955;28;19994;-55
2023/05/21 05:14:48;;;;;;;;;;;;;;;18.29;72.11;98139.09;2082326;28;24086;-52
2023/05/21 05:15:51;;;;;;;;;;;;;;;18.27;72.71;98147.34;2083221;28;19962;-54
2023/05/21 05:16:52;;;;;;;;;;;;;;;18.27;72.25;98136.59;2086518;28;19920;-52
2023/05/21 05:17:55;;;;;;;;;;;;;;;18.28;72.13;98135.59;2085939;28;19987;-53
2023/05/21 05:18:55;;;;;;;;;;;;;;;18.29;72.13;98144.44;2075434;28;20023;-56
2023/05/21 05:19:57;;;;;;;;;;;;;;;18.29;71.94;98139.09;2077707;28;19920;-51
2023/05/21 05:20:57;;;;;;;;;;;;;;;18.30;72.09;98136.19;2081745;28;19969;-53